createdAt,value
2022-07-29T00:00:03.305Z,98487.50
2022-07-29T00:03:07.409Z,98496.12
2022-07-29T00:06:11.625Z,98493.81
2022-07-29T00:09:14.902Z,98504.50
2022-07-29T00:12:21.336Z,98487.16
2022-07-29T00:15:28.516Z,98493.81
2022-07-29T00:18:31.817Z,98492.22
2022-07-29T00:21:34.689Z,98493.34
2022-07-29T00:24:38.151Z,98493.78
2022-07-29T00:27:41.658Z,98489.16
2022-07-29T00:30:44.842Z,98477.84
2022-07-29T00:33:47.738Z,98494.31
2022-07-29T00:36:50.764Z,98488.94
2022-07-29T00:39:53.743Z,98494.00
2022-07-29T00:42:57.321Z,98492.25
2022-07-29T00:46:01.213Z,98489.50
2022-07-29T00:49:04.495Z,98491.09
2022-07-29T00:52:07.990Z,98492.84
2022-07-29T00:55:14.059Z,98483.59
2022-07-29T00:58:16.676Z,98486.19
2022-07-29T01:01:20.671Z,98488.91
2022-07-29T01:04:23.504Z,98487.59
2022-07-29T01:07:27.342Z,98479.81
2022-07-29T01:10:30.691Z,98484.53
2022-07-29T01:13:35.035Z,98477.34
2022-07-29T01:16:47.549Z,98476.19
2022-07-29T01:20:08.775Z,98480.22
2022-07-29T01:23:31.556Z,98481.06
2022-07-29T01:26:49.164Z,98454.31
2022-07-29T01:29:59.936Z,98477.00
2022-07-29T01:33:09.831Z,98466.75
2022-07-29T01:36:17.563Z,98465.62
2022-07-29T01:39:31.676Z,98462.13
2022-07-29T01:42:44.238Z,98462.13
2022-07-29T01:45:54.838Z,98470.19
2022-07-29T01:49:03.452Z,98478.22
2022-07-29T01:52:09.611Z,98471.25
2022-07-29T01:55:16.544Z,98470.34
2022-07-29T01:58:20.518Z,98465.12
2022-07-29T02:01:25.478Z,98464.53
2022-07-29T02:04:30.498Z,98461.34
2022-07-29T02:07:34.177Z,98463.34
2022-07-29T02:10:38.471Z,98457.53
2022-07-29T02:13:42.917Z,98448.25
2022-07-29T02:16:46.615Z,98458.69
2022-07-29T02:19:50.452Z,98451.53
2022-07-29T02:22:54.449Z,98454.28
2022-07-29T02:25:58.365Z,98449.59
2022-07-29T02:29:03.213Z,98451.34
2022-07-29T02:32:07.871Z,98447.13
2022-07-29T02:35:14.540Z,98443.53
2022-07-29T02:38:36.904Z,98446.69
2022-07-29T02:41:44.229Z,98455.09
2022-07-29T02:44:46.906Z,98455.94
2022-07-29T02:47:51.289Z,98457.34
2022-07-29T02:51:02.356Z,98453.75
2022-07-29T02:54:08.552Z,98454.41
2022-07-29T02:57:21.861Z,98460.75
2022-07-29T03:00:28.472Z,98460.75
2022-07-29T03:03:37.890Z,98458.44
2022-07-29T03:06:41.883Z,98452.47
2022-07-29T03:09:45.579Z,98457.22
2022-07-29T03:12:49.566Z,98455.59
2022-07-29T03:15:52.997Z,98442.53
2022-07-29T03:18:56.613Z,98453.75
2022-07-29T03:22:00.329Z,98452.84
2022-07-29T03:25:11.435Z,98452.13
2022-07-29T03:28:14.461Z,98446.94
2022-07-29T03:31:19.659Z,98452.88
2022-07-29T03:34:23.827Z,98437.53
2022-07-29T03:37:27.528Z,98443.75
2022-07-29T03:40:44.123Z,98453.47
2022-07-29T03:43:49.511Z,98452.31
2022-07-29T03:46:53.868Z,98458.69
2022-07-29T03:50:01.688Z,98456.44
2022-07-29T03:53:05.223Z,98457.06
2022-07-29T03:56:09.222Z,98456.06
2022-07-29T03:59:12.767Z,98465.03
2022-07-29T04:02:20.175Z,98437.84
2022-07-29T04:05:25.801Z,98465.12
2022-07-29T04:08:29.134Z,98471.47
2022-07-29T04:11:32.692Z,98473.09
2022-07-29T04:14:36.746Z,98465.25
2022-07-29T04:17:40.047Z,98466.38
2022-07-29T04:20:42.704Z,98466.12
2022-07-29T04:23:53.906Z,98453.53
2022-07-29T04:26:57.074Z,98466.97
2022-07-29T04:30:00.781Z,98469.69
2022-07-29T04:33:07.258Z,98467.16
2022-07-29T04:36:28.344Z,98467.16
2022-07-29T04:39:33.382Z,98461.56
2022-07-29T04:42:36.294Z,98465.00
2022-07-29T04:45:50.293Z,98467.25
2022-07-29T04:48:54.852Z,98467.38
2022-07-29T04:51:57.584Z,98468.28
2022-07-29T04:55:00.703Z,98476.37
2022-07-29T04:58:03.454Z,98477.25
2022-07-29T05:01:06.757Z,98473.38
2022-07-29T05:04:09.854Z,98467.84
2022-07-29T05:07:13.286Z,98485.19
2022-07-29T05:10:16.557Z,98484.66
2022-07-29T05:13:19.729Z,98482.09
2022-07-29T05:16:22.784Z,98477.09
2022-07-29T05:19:26.006Z,98466.44
2022-07-29T05:22:29.190Z,98482.28
2022-07-29T05:25:43.281Z,98481.47
2022-07-29T05:28:47.946Z,98475.88
2022-07-29T05:31:52.497Z,98480.41
2022-07-29T05:34:55.033Z,98483.31
2022-07-29T05:37:58.368Z,98481.66
2022-07-29T05:41:01.328Z,98484.28
2022-07-29T05:44:05.366Z,98489.47
2022-07-29T05:47:08.482Z,98488.03
2022-07-29T05:50:11.873Z,98480.97
2022-07-29T05:53:19.463Z,98483.00
2022-07-29T05:56:23.107Z,98485.03
2022-07-29T05:59:30.151Z,98474.91
2022-07-29T06:02:33.418Z,98478.25
2022-07-29T06:05:36.788Z,98485.47
2022-07-29T06:08:39.701Z,98486.16
2022-07-29T06:11:42.971Z,98479.44
2022-07-29T06:14:46.973Z,98493.13
2022-07-29T06:18:00.078Z,98477.44
2022-07-29T06:21:09.657Z,98492.84
2022-07-29T06:24:13.896Z,98505.22
2022-07-29T06:27:17.583Z,98504.63
2022-07-29T06:30:20.796Z,98490.97
2022-07-29T06:33:23.657Z,98496.97
2022-07-29T06:36:26.948Z,98501.84
2022-07-29T06:39:31.176Z,98502.75
2022-07-29T06:42:34.111Z,98509.75
2022-07-29T06:45:37.379Z,98514.13
2022-07-29T06:48:42.015Z,98513.44
2022-07-29T06:51:44.786Z,98510.62
2022-07-29T06:54:49.146Z,98521.56
2022-07-29T06:57:52.423Z,98502.13
2022-07-29T07:00:58.925Z,98515.03
2022-07-29T07:04:01.581Z,98511.38
2022-07-29T07:07:05.196Z,98515.13
2022-07-29T07:10:08.435Z,98509.31
2022-07-29T07:13:11.986Z,98514.56
2022-07-29T07:16:14.915Z,98510.69
2022-07-29T07:19:20.238Z,98519.78
2022-07-29T07:22:23.061Z,98515.72
2022-07-29T07:25:27.067Z,98524.13
2022-07-29T07:28:30.325Z,98519.66
2022-07-29T07:31:34.007Z,98517.97
2022-07-29T07:34:38.890Z,98519.06
2022-07-29T07:37:42.628Z,98520.72
2022-07-29T07:40:47.415Z,98522.81
2022-07-29T07:43:50.740Z,98513.03
2022-07-29T07:46:53.558Z,98519.81
2022-07-29T07:49:58.310Z,98517.59
2022-07-29T07:53:03.056Z,98513.91
2022-07-29T07:56:10.842Z,98508.56
2022-07-29T07:59:15.295Z,98517.56
2022-07-29T08:02:18.239Z,98518.25
2022-07-29T08:05:21.991Z,98515.97
2022-07-29T08:08:25.568Z,98514.72
2022-07-29T08:11:28.592Z,98513.31
2022-07-29T08:14:36.905Z,98510.91
2022-07-29T08:17:40.634Z,98518.34
2022-07-29T08:20:43.309Z,98506.94
2022-07-29T08:23:58.595Z,98507.03
2022-07-29T08:27:02.391Z,98508.47
2022-07-29T08:30:06.516Z,98509.28
2022-07-29T08:33:10.097Z,98520.38
2022-07-29T08:36:14.277Z,98513.44
2022-07-29T08:39:17.023Z,98512.06
2022-07-29T08:42:20.126Z,98513.94
2022-07-29T08:45:24.563Z,98507.84
2022-07-29T08:48:27.476Z,98496.19
2022-07-29T08:51:49.440Z,98504.91
2022-07-29T08:54:54.397Z,98502.84
2022-07-29T08:57:59.963Z,98499.44
2022-07-29T09:01:04.566Z,98508.59
2022-07-29T09:04:12.755Z,98504.12
2022-07-29T09:07:17.268Z,98505.97
2022-07-29T09:10:20.244Z,98503.91
2022-07-29T09:13:23.885Z,98487.84
2022-07-29T09:16:51.052Z,98493.06
2022-07-29T09:19:49.829Z,98499.81
2022-07-29T09:22:54.574Z,98503.00
2022-07-29T09:26:06.851Z,98491.25
2022-07-29T09:29:17.006Z,98491.72
2022-07-29T09:32:19.884Z,98496.00
2022-07-29T09:35:24.814Z,98492.59
2022-07-29T09:38:27.791Z,98487.38
2022-07-29T09:41:31.356Z,98476.66
2022-07-29T09:44:45.576Z,98476.63
2022-07-29T09:47:50.226Z,98479.63
2022-07-29T09:50:53.582Z,98479.25
2022-07-29T09:53:57.033Z,98471.50
2022-07-29T09:57:00.350Z,98483.06
2022-07-29T10:00:08.510Z,98481.34
2022-07-29T10:03:15.753Z,98469.72
2022-07-29T10:06:19.112Z,98464.78
2022-07-29T10:09:22.290Z,98461.41
2022-07-29T10:12:26.033Z,98457.78
2022-07-29T10:15:31.069Z,98462.16
2022-07-29T10:18:35.266Z,98463.69
2022-07-29T10:21:38.847Z,98464.22
2022-07-29T10:24:42.390Z,98461.69
2022-07-29T10:27:47.605Z,98450.84
2022-07-29T10:30:51.983Z,98450.00
2022-07-29T10:34:43.286Z,98450.12
2022-07-29T10:38:47.176Z,98446.34
2022-07-29T10:42:01.256Z,98448.25
2022-07-29T10:45:07.346Z,98437.16
2022-07-29T10:48:10.512Z,98449.53
2022-07-29T10:51:13.753Z,98445.25
2022-07-29T10:54:39.732Z,98448.69
2022-07-29T10:58:19.055Z,98445.28
2022-07-29T11:01:37.120Z,98443.59
2022-07-29T11:05:06.595Z,98445.50
2022-07-29T11:08:21.095Z,98427.53
2022-07-29T11:11:29.655Z,98432.56
2022-07-29T11:14:54.997Z,98422.81
2022-07-29T11:18:01.269Z,98417.13
2022-07-29T11:21:04.203Z,98413.63
2022-07-29T11:24:29.260Z,98417.97
2022-07-29T11:27:40.569Z,98413.59
2022-07-29T11:30:53.476Z,98404.09
2022-07-29T11:33:56.976Z,98404.22
2022-07-29T11:37:09.455Z,98408.44
2022-07-29T11:40:14.813Z,98398.22
2022-07-29T11:43:47.968Z,98395.75
2022-07-29T11:46:54.747Z,98401.03
2022-07-29T11:49:59.885Z,98379.31
2022-07-29T11:53:14.113Z,98397.62
2022-07-29T11:56:18.827Z,98390.13
2022-07-29T11:59:22.735Z,98389.41
2022-07-29T12:02:48.489Z,98382.22
2022-07-29T12:05:52.078Z,98371.31
2022-07-29T12:08:55.376Z,98376.09
2022-07-29T12:12:04.902Z,98373.81
2022-07-29T12:15:17.037Z,98366.53
2022-07-29T12:18:24.603Z,98362.75
2022-07-29T12:21:29.042Z,98357.56
2022-07-29T12:24:45.078Z,98361.75
2022-07-29T12:27:48.588Z,98344.56
2022-07-29T12:30:53.178Z,98363.44
2022-07-29T12:33:56.247Z,98340.69
2022-07-29T12:37:02.229Z,98347.69
2022-07-29T12:40:06.355Z,98348.91
2022-07-29T12:43:17.866Z,98352.56
2022-07-29T12:46:20.801Z,98343.84
2022-07-29T12:49:24.191Z,98333.81
2022-07-29T12:52:28.402Z,98328.38
2022-07-29T12:55:43.043Z,98322.34
2022-07-29T12:58:49.394Z,98321.63
2022-07-29T13:01:54.464Z,98313.41
2022-07-29T13:04:59.007Z,98320.38
2022-07-29T13:08:22.301Z,98314.47
2022-07-29T13:11:37.757Z,98317.66
2022-07-29T13:14:48.726Z,98314.88
2022-07-29T13:17:51.732Z,98300.25
2022-07-29T13:20:55.899Z,98288.94
2022-07-29T13:23:59.085Z,98283.03
2022-07-29T13:27:02.288Z,98290.00
2022-07-29T13:30:10.398Z,98284.66
2022-07-29T13:33:13.518Z,98285.00
2022-07-29T13:36:16.210Z,98277.28
2022-07-29T13:39:19.670Z,98283.44
2022-07-29T13:42:23.527Z,98281.44
2022-07-29T13:45:29.265Z,98271.41
2022-07-29T13:48:32.887Z,98269.50
2022-07-29T13:51:36.356Z,98271.44
2022-07-29T13:54:42.692Z,98269.88
2022-07-29T13:57:46.758Z,98269.81
2022-07-29T14:00:49.809Z,98259.06
2022-07-29T14:03:53.090Z,98252.44
2022-07-29T14:06:56.116Z,98264.22
2022-07-29T14:09:59.570Z,98266.28
2022-07-29T14:13:02.367Z,98255.75
2022-07-29T14:16:07.987Z,98256.13
2022-07-29T14:19:14.885Z,98255.72
2022-07-29T14:22:19.951Z,98246.69
2022-07-29T14:25:26.223Z,98244.19
2022-07-29T14:28:29.497Z,98246.78
2022-07-29T14:31:32.222Z,98235.66
2022-07-29T14:34:36.556Z,98240.41
2022-07-29T14:37:40.195Z,98234.53
2022-07-29T14:40:43.863Z,98238.50
2022-07-29T14:43:46.881Z,98220.59
2022-07-29T14:46:50.599Z,98223.03
2022-07-29T14:49:53.767Z,98215.75
2022-07-29T14:52:57.101Z,98206.25
2022-07-29T14:56:10.293Z,98211.63
2022-07-29T14:59:18.697Z,98210.25
2022-07-29T15:02:21.768Z,98212.84
2022-07-29T15:05:25.350Z,98207.72
2022-07-29T15:08:30.874Z,98208.84
2022-07-29T15:11:38.275Z,98192.97
2022-07-29T15:14:41.984Z,98204.41
2022-07-29T15:17:44.897Z,98191.78
2022-07-29T15:20:47.720Z,98196.75
2022-07-29T15:23:50.768Z,98186.06
2022-07-29T15:26:53.635Z,98200.00
2022-07-29T15:29:56.754Z,98191.62
2022-07-29T15:32:59.513Z,98192.72
2022-07-29T15:36:02.613Z,98183.12
2022-07-29T15:39:05.759Z,98176.88
2022-07-29T15:42:09.397Z,98190.38
2022-07-29T15:45:12.066Z,98188.00
2022-07-29T15:48:15.782Z,98182.22
2022-07-29T15:51:21.643Z,98183.06
2022-07-29T15:54:25.162Z,98167.59
2022-07-29T15:57:28.188Z,98172.34
2022-07-29T16:00:31.555Z,98177.09
2022-07-29T16:03:34.537Z,98173.44
2022-07-29T16:06:37.476Z,98151.13
2022-07-29T16:09:41.235Z,98161.66
2022-07-29T16:12:43.969Z,98161.22
2022-07-29T16:16:02.255Z,98166.34
2022-07-29T16:19:06.431Z,98168.06
2022-07-29T16:22:09.407Z,98161.84
2022-07-29T16:25:12.361Z,98158.00
2022-07-29T16:28:15.884Z,98157.94
2022-07-29T16:31:22.498Z,98158.78
2022-07-29T16:34:26.026Z,98164.50
2022-07-29T16:37:37.947Z,98168.59
2022-07-29T16:40:42.437Z,98159.59
2022-07-29T16:43:45.145Z,98163.66
2022-07-29T16:46:48.873Z,98153.97
2022-07-29T16:49:52.809Z,98159.09
2022-07-29T16:52:56.692Z,98156.78
2022-07-29T16:55:59.980Z,98153.53
2022-07-29T16:59:03.533Z,98154.84
2022-07-29T17:02:06.892Z,98158.88
2022-07-29T17:05:11.340Z,98161.56
2022-07-29T17:08:14.147Z,98160.47
2022-07-29T17:11:17.322Z,98150.41
2022-07-29T17:14:24.002Z,98157.25
2022-07-29T17:17:38.991Z,98148.44
2022-07-29T17:20:51.631Z,98157.84
2022-07-29T17:23:54.760Z,98146.00
2022-07-29T17:26:57.592Z,98158.22
2022-07-29T17:30:01.160Z,98150.03
2022-07-29T17:33:04.142Z,98146.09
2022-07-29T17:36:27.165Z,98147.97
2022-07-29T17:39:30.207Z,98157.97
2022-07-29T17:42:33.279Z,98156.19
2022-07-29T17:45:50.266Z,98153.75
2022-07-29T17:48:56.050Z,98158.19
2022-07-29T17:52:00.975Z,98151.53
2022-07-29T17:55:04.987Z,98155.28
2022-07-29T17:58:10.338Z,98152.44
2022-07-29T18:01:14.628Z,98153.12
2022-07-29T18:04:21.152Z,98158.22
2022-07-29T18:07:24.425Z,98157.50
2022-07-29T18:10:27.593Z,98145.62
2022-07-29T18:13:30.158Z,98155.59
2022-07-29T18:16:34.151Z,98163.97
2022-07-29T18:19:36.861Z,98162.06
2022-07-29T18:22:40.298Z,98158.81
2022-07-29T18:25:43.359Z,98170.00
2022-07-29T18:28:46.672Z,98171.03
2022-07-29T18:31:50.327Z,98172.09
2022-07-29T18:34:53.671Z,98178.13
2022-07-29T18:38:01.160Z,98184.31
2022-07-29T18:41:05.975Z,98179.91
2022-07-29T18:44:09.778Z,98179.63
2022-07-29T18:47:13.170Z,98190.16
2022-07-29T18:50:16.887Z,98194.91
2022-07-29T18:53:20.159Z,98194.53
2022-07-29T18:56:22.753Z,98201.97
2022-07-29T18:59:28.576Z,98197.47
2022-07-29T19:02:31.604Z,98205.59
2022-07-29T19:05:35.119Z,98197.91
2022-07-29T19:08:37.810Z,98201.59
2022-07-29T19:11:41.550Z,98204.81
2022-07-29T19:14:44.552Z,98200.13
2022-07-29T19:17:52.057Z,98208.34
2022-07-29T19:20:54.924Z,98205.31
2022-07-29T19:24:01.696Z,98203.00
2022-07-29T19:27:10.232Z,98211.97
2022-07-29T19:30:13.893Z,98217.84
2022-07-29T19:33:18.928Z,98220.62
2022-07-29T19:36:21.911Z,98222.53
2022-07-29T19:39:34.933Z,98220.22
2022-07-29T19:42:39.232Z,98228.88
2022-07-29T19:45:42.317Z,98233.72
2022-07-29T19:48:45.969Z,98236.84
2022-07-29T19:51:49.035Z,98234.28
2022-07-29T19:54:52.062Z,98236.06
2022-07-29T19:57:55.574Z,98242.88
2022-07-29T20:00:58.758Z,98235.19
2022-07-29T20:04:01.815Z,98248.75
2022-07-29T20:07:05.754Z,98249.31
2022-07-29T20:10:10.449Z,98238.94
2022-07-29T20:13:13.308Z,98235.34
2022-07-29T20:16:16.901Z,98227.47
2022-07-29T20:19:20.089Z,98248.00
2022-07-29T20:22:23.439Z,98241.25
2022-07-29T20:25:26.099Z,98231.09
2022-07-29T20:28:29.581Z,98238.84
2022-07-29T20:31:32.903Z,98253.38
2022-07-29T20:34:36.438Z,98254.38
2022-07-29T20:37:52.210Z,98249.41
2022-07-29T20:40:59.683Z,98243.69
2022-07-29T20:44:03.301Z,98256.44
2022-07-29T20:47:06.582Z,98255.72
2022-07-29T20:50:10.180Z,98251.22
2022-07-29T20:53:13.650Z,98254.66
2022-07-29T20:56:16.482Z,98251.75
2022-07-29T20:59:19.602Z,98254.28
2022-07-29T21:02:22.181Z,98239.44
2022-07-29T21:05:28.213Z,98237.00
2022-07-29T21:08:31.310Z,98244.25
2022-07-29T21:11:43.265Z,98241.63
2022-07-29T21:14:48.157Z,98241.34
2022-07-29T21:17:59.726Z,98253.41
2022-07-29T21:21:04.538Z,98248.53
2022-07-29T21:24:08.174Z,98250.91
2022-07-29T21:27:33.633Z,98261.72
2022-07-29T21:30:37.275Z,98266.59
2022-07-29T21:33:42.043Z,98264.84
2022-07-29T21:36:58.501Z,98263.94
2022-07-29T21:40:02.098Z,98263.13
2022-07-29T21:43:08.844Z,98266.94
2022-07-29T21:46:12.644Z,98274.91
2022-07-29T21:49:16.545Z,98279.63
2022-07-29T21:52:19.579Z,98281.50
2022-07-29T21:55:24.414Z,98291.66
2022-07-29T21:58:29.652Z,98298.34
2022-07-29T22:01:38.999Z,98295.91
2022-07-29T22:04:43.011Z,98289.69
2022-07-29T22:07:55.585Z,98298.00
2022-07-29T22:11:00.756Z,98287.34
2022-07-29T22:14:06.198Z,98293.94
2022-07-29T22:17:09.164Z,98300.28
2022-07-29T22:20:12.418Z,98291.63
2022-07-29T22:23:15.383Z,98283.88
2022-07-29T22:26:19.222Z,98286.25
2022-07-29T22:29:22.354Z,98291.50
2022-07-29T22:32:25.458Z,98284.88
2022-07-29T22:35:28.517Z,98278.13
2022-07-29T22:38:31.813Z,98276.06
2022-07-29T22:41:35.110Z,98270.78
2022-07-29T22:44:38.124Z,98263.28
2022-07-29T22:47:47.892Z,98265.22
2022-07-29T22:50:51.764Z,98264.81
2022-07-29T22:53:54.821Z,98266.75
2022-07-29T22:56:57.907Z,98262.41
2022-07-29T23:00:02.603Z,98262.19
2022-07-29T23:03:06.267Z,98254.28
2022-07-29T23:06:09.489Z,98243.91
2022-07-29T23:09:12.169Z,98211.91
2022-07-29T23:12:15.601Z,98252.31
2022-07-29T23:15:18.528Z,98248.87
2022-07-29T23:18:22.755Z,98253.94
2022-07-29T23:21:26.285Z,98269.41
2022-07-29T23:24:29.683Z,98276.59
2022-07-29T23:27:33.064Z,98233.59
2022-07-29T23:30:36.687Z,98275.72
2022-07-29T23:33:41.134Z,98271.28
2022-07-29T23:36:44.374Z,98272.13
2022-07-29T23:39:47.135Z,98271.09
2022-07-29T23:42:50.508Z,98261.44
2022-07-29T23:45:53.691Z,98261.03
2022-07-29T23:48:56.797Z,98260.75
2022-07-29T23:52:00.024Z,98256.41
2022-07-29T23:55:37.253Z,98247.75
2022-07-29T23:58:26.115Z,98237.66
